Time;durP1;ratioP1;P1;durP2;ratioP2;P2;SDS_P1;SDS_P2;PMS_P1;PMS_P2;Temp;Humidity;BMP_temperature;BMP_pressure;BME280_temperature;BME280_humidity;BME280_pressure;Samples;Min_cycle;Max_cycle;Signal;HPM_P1;HPM_P2
2021/12/05 00:25:36;;;;;;;6.70;2.30;;;5.00;99.90;;;;;;10358303;28;20233;-72
2021/12/05 00:46:46;;;;;;;5.97;2.00;;;4.90;99.90;;;;;;10342514;28;20269;-72
2021/12/05 00:57:28;;;;;;;10.73;2.60;;;4.90;99.90;;;;;;10350028;28;20222;-70
2021/12/05 01:18:04;;;;;;;9.70;2.07;;;5.00;99.90;;;;;;10350025;28;20276;-72
2021/12/05 01:23:17;;;;;;;6.17;2.10;;;5.00;99.90;;;;;;10355322;28;20244;-71
2021/12/05 01:33:39;;;;;;;5.23;1.97;;;5.00;99.90;;;;;;10354376;28;20585;-71
2021/12/05 01:39:21;;;;;;;6.33;2.10;;;5.00;99.90;;;;;;10352516;28;20287;-71
2021/12/05 02:00:29;;;;;;;6.00;1.80;;;5.00;99.90;;;;;;10351067;28;20237;-71
2021/12/05 02:16:31;;;;;;;6.00;1.97;;;5.00;99.90;;;;;;10347950;28;20316;-72
2021/12/05 02:38:39;;;;;;;7.70;2.20;;;4.80;99.90;;;;;;10346996;28;20225;-72
2021/12/05 02:43:10;;;;;;;9.27;2.40;;;4.70;99.90;;;;;;10344127;28;20248;-71
2021/12/05 02:48:11;;;;;;;4.83;1.80;;;4.50;99.90;;;;;;10355862;28;20271;-70
2021/12/05 02:53:21;;;;;;;6.73;2.13;;;4.40;99.90;;;;;;10344921;28;20272;-71
2021/12/05 02:58:37;;;;;;;4.70;1.70;;;4.30;99.90;;;;;;10343572;28;20249;-71
2021/12/05 03:03:38;;;;;;;7.20;2.27;;;4.10;99.90;;;;;;10348442;28;20235;-71
2021/12/05 03:08:39;;;;;;;8.60;2.27;;;4.00;99.90;;;;;;10320828;28;20249;-71
2021/12/05 03:13:41;;;;;;;5.13;2.10;;;3.90;99.90;;;;;;10337301;28;20219;-71
2021/12/05 03:18:42;;;;;;;9.20;2.70;;;3.80;99.90;;;;;;10342735;28;20226;-70
2021/12/05 03:23:46;;;;;;;9.03;2.30;;;3.70;99.90;;;;;;10351540;28;20690;-71
2021/12/05 03:28:54;;;;;;;7.53;2.37;;;3.60;99.90;;;;;;10344204;28;20296;-71
2021/12/05 03:33:56;;;;;;;5.90;2.40;;;3.50;99.90;;;;;;10344852;28;20224;-71
2021/12/05 03:38:57;;;;;;;11.27;2.47;;;3.40;99.90;;;;;;10359852;28;20221;-70
2021/12/05 03:43:58;;;;;;;8.83;2.63;;;3.40;99.90;;;;;;10356888;28;20251;-71
2021/12/05 03:49:03;;;;;;;8.17;2.30;;;3.40;99.90;;;;;;10353187;28;20218;-71
2021/12/05 03:54:07;;;;;;;9.57;2.43;;;3.40;99.90;;;;;;10358838;28;20311;-71
2021/12/05 03:59:12;;;;;;;6.27;2.20;;;3.40;99.90;;;;;;10358118;28;20283;-71
2021/12/05 04:04:14;;;;;;;9.53;2.30;;;3.50;99.90;;;;;;10348810;28;20257;-71
2021/12/05 04:09:18;;;;;;;12.10;2.37;;;3.50;99.90;;;;;;10355996;28;20214;-71
2021/12/05 04:14:18;;;;;;;8.03;2.13;;;3.60;99.90;;;;;;10349201;28;20217;-72
2021/12/05 04:19:19;;;;;;;7.47;2.10;;;3.80;99.90;;;;;;10357757;28;20249;-71
2021/12/05 04:24:22;;;;;;;5.03;1.67;;;4.00;99.90;;;;;;10343351;28;20796;-72
2021/12/05 04:29:23;;;;;;;9.93;2.07;;;4.10;99.90;;;;;;10316613;28;20315;-72
2021/12/05 04:34:24;;;;;;;6.83;2.17;;;4.20;99.90;;;;;;10339286;28;20324;-71
2021/12/05 04:39:29;;;;;;;5.83;2.10;;;4.30;99.90;;;;;;10308271;28;20292;-72
2021/12/05 04:44:30;;;;;;;4.80;1.50;;;4.30;99.90;;;;;;10327466;28;20660;-71
2021/12/05 04:49:31;;;;;;;4.20;1.63;;;4.30;99.90;;;;;;10325650;28;20214;-72
2021/12/05 04:54:32;;;;;;;6.53;1.77;;;4.30;99.90;;;;;;10353032;28;20226;-71
2021/12/05 04:59:36;;;;;;;6.03;1.80;;;4.20;99.90;;;;;;10355725;28;20222;-71
2021/12/05 05:04:44;;;;;;;6.40;2.00;;;4.00;99.90;;;;;;10358314;28;20577;-72
2021/12/05 05:09:46;;;;;;;5.80;1.67;;;3.80;99.90;;;;;;10364478;28;20267;-71
2021/12/05 05:14:47;;;;;;;6.20;1.70;;;3.80;99.90;;;;;;10366688;28;20222;-71
2021/12/05 05:19:51;;;;;;;4.93;1.90;;;3.90;99.90;;;;;;10347818;28;20232;-71
2021/12/05 05:25:17;;;;;;;6.60;1.80;;;4.00;99.90;;;;;;10371984;28;20222;-71
2021/12/05 05:46:25;;;;;;;5.77;2.20;;;4.40;99.90;;;;;;10353905;28;20225;-72
2021/12/05 05:51:26;;;;;;;7.80;2.63;;;4.40;99.90;;;;;;10345997;28;20225;-72
2021/12/05 05:56:29;;;;;;;8.23;2.60;;;4.40;99.90;;;;;;10347354;28;20580;-72
2021/12/05 06:06:36;;;;;;;4.20;2.43;;;4.50;99.90;;;;;;10347145;28;20770;-70
2021/12/05 06:11:37;;;;;;;6.03;2.20;;;4.50;99.90;;;;;;10348605;28;20225;-71
2021/12/05 06:16:38;;;;;;;5.97;1.70;;;4.50;99.90;;;;;;10343309;28;20226;-71
2021/12/05 06:21:39;;;;;;;4.83;2.13;;;4.50;99.90;;;;;;10351473;28;20217;-70
2021/12/05 06:26:40;;;;;;;4.77;1.73;;;4.50;99.90;;;;;;10340682;28;20222;-71
2021/12/05 06:37:31;;;;;;;6.43;1.83;;;4.60;99.90;;;;;;10345474;28;20217;-70
2021/12/05 06:47:51;;;;;;;2.70;1.63;;;4.60;99.90;;;;;;10342633;28;20213;-71
2021/12/05 06:52:51;;;;;;;5.63;1.90;;;4.60;99.90;;;;;;10350048;28;20581;-70
2021/12/05 06:57:52;;;;;;;4.73;1.70;;;4.60;99.90;;;;;;10351992;28;20232;-71
2021/12/05 07:02:52;;;;;;;7.17;2.23;;;4.60;99.90;;;;;;10347044;28;20610;-71
2021/12/05 07:07:53;;;;;;;5.83;2.10;;;4.70;99.90;;;;;;10345387;28;20214;-71
2021/12/05 07:13:41;;;;;;;6.30;1.43;;;4.70;99.90;;;;;;10352017;28;20225;-70
2021/12/05 07:44:51;;;;;;;4.53;1.60;;;4.90;99.90;;;;;;10355494;28;20316;-72
2021/12/05 07:49:53;;;;;;;4.10;1.73;;;4.90;99.90;;;;;;10366675;28;20685;-71
2021/12/05 07:55:02;;;;;;;4.17;1.70;;;4.90;99.90;;;;;;10336054;28;20632;-71
2021/12/05 08:00:14;;;;;;;6.17;2.00;;;5.00;99.90;;;;;;10353731;28;20640;-71
2021/12/05 08:16:03;;;;;;;3.27;1.80;;;5.10;99.90;;;;;;10364305;28;20213;-71
2021/12/05 08:21:11;;;;;;;3.73;1.63;;;5.20;99.90;;;;;;10350231;28;20268;-70
2021/12/05 08:26:18;;;;;;;6.03;1.87;;;5.30;99.90;;;;;;10355552;28;20271;-70
2021/12/05 10:11:50;;;;;;;2.97;1.50;;;8.80;99.90;;;;;;10347993;28;20238;-71
2021/12/05 10:38:16;;;;;;;2.63;1.57;;;13.60;99.90;;;;;;10346962;28;20251;-71
2021/12/05 10:43:20;;;;;;;2.60;1.20;;;17.30;90.50;;;;;;10344783;28;20249;-71
2021/12/05 10:48:36;;;;;;;3.63;1.50;;;14.40;92.60;;;;;;10352584;28;20289;-70
2021/12/05 10:53:47;;;;;;;3.17;1.73;;;11.80;99.90;;;;;;10356770;28;20254;-72
2021/12/05 10:59:03;;;;;;;4.93;1.67;;;10.80;99.90;;;;;;10354195;28;20243;-71
2021/12/05 11:04:15;;;;;;;4.43;1.70;;;10.30;99.90;;;;;;10351368;28;20235;-71
2021/12/05 11:09:18;;;;;;;3.77;1.40;;;11.50;99.90;;;;;;10357362;28;20224;-71
2021/12/05 11:14:25;;;;;;;3.33;1.30;;;11.20;99.90;;;;;;10348148;28;20224;-72
2021/12/05 11:19:40;;;;;;;3.70;1.77;;;10.40;99.90;;;;;;10357171;28;20243;-71
2021/12/05 11:24:48;;;;;;;4.43;2.03;;;9.60;99.90;;;;;;10355355;28;20224;-70
2021/12/05 11:29:52;;;;;;;4.60;1.67;;;9.10;99.90;;;;;;10354328;28;20217;-71
2021/12/05 11:34:52;;;;;;;4.60;2.10;;;8.70;99.90;;;;;;10353782;28;20288;-71
2021/12/05 11:40:05;;;;;;;3.60;1.50;;;8.90;99.90;;;;;;10354754;28;20654;-71
2021/12/05 11:45:06;;;;;;;4.70;2.43;;;9.30;99.90;;;;;;10359642;28;20235;-70
2021/12/05 11:50:07;;;;;;;3.90;1.60;;;9.60;99.90;;;;;;10356459;28;20219;-71
2021/12/05 11:55:23;;;;;;;2.73;1.83;;;9.30;99.90;;;;;;10351171;28;20278;-70
2021/12/05 12:00:25;;;;;;;4.17;1.77;;;9.30;99.90;;;;;;10357513;28;20240;-72
2021/12/05 12:05:30;;;;;;;4.53;1.90;;;9.10;99.90;;;;;;10355934;28;20717;-71
2021/12/05 12:10:38;;;;;;;3.57;1.63;;;8.70;99.90;;;;;;10351347;28;20219;-71
2021/12/05 12:15:42;;;;;;;4.93;1.90;;;8.30;99.90;;;;;;10368954;28;20708;-71
2021/12/05 12:20:46;;;;;;;5.03;2.20;;;8.10;99.90;;;;;;10358221;28;20211;-71
2021/12/05 12:25:51;;;;;;;5.47;2.17;;;7.80;99.90;;;;;;10353695;28;20636;-70
2021/12/05 12:30:56;;;;;;;5.73;2.07;;;7.70;99.90;;;;;;10354741;28;20218;-72
2021/12/05 12:35:57;;;;;;;4.93;2.07;;;7.90;99.90;;;;;;10349713;28;20221;-71
2021/12/05 12:41:11;;;;;;;5.87;2.73;;;8.20;99.90;;;;;;10360127;28;20226;-70
2021/12/05 12:46:27;;;;;;;3.47;2.47;;;8.20;99.90;;;;;;10349094;28;20220;-70
2021/12/05 12:51:27;;;;;;;2.63;1.80;;;8.40;99.90;;;;;;10364667;28;20212;-71
2021/12/05 12:56:29;;;;;;;3.23;1.70;;;8.60;99.90;;;;;;10345853;28;20217;-69
2021/12/05 13:12:01;;;;;;;1.73;0.90;;;7.80;99.90;;;;;;10347326;28;20596;-74
2021/12/05 13:17:04;;;;;;;1.80;0.87;;;7.70;99.90;;;;;;10352890;28;20233;-71
2021/12/05 13:22:07;;;;;;;1.33;0.90;;;7.50;99.90;;;;;;10355611;28;20221;-72
2021/12/05 13:27:24;;;;;;;2.03;1.03;;;7.50;99.90;;;;;;10350182;28;20222;-73
2021/12/05 13:32:30;;;;;;;3.20;1.07;;;7.40;99.90;;;;;;10342772;28;20221;-71
2021/12/05 13:37:52;;;;;;;1.67;1.00;;;7.40;99.90;;;;;;10349240;28;20222;-72
2021/12/05 13:43:05;;;;;;;1.87;1.00;;;7.40;99.90;;;;;;10365735;28;20223;-72
2021/12/05 13:48:15;;;;;;;1.73;1.20;;;7.30;99.90;;;;;;10353786;28;20214;-72
2021/12/05 13:53:22;;;;;;;1.20;1.00;;;7.30;99.90;;;;;;10361454;28;20288;-71
2021/12/05 13:58:23;;;;;;;1.57;1.07;;;7.20;99.90;;;;;;10368910;28;20272;-70
2021/12/05 14:03:50;;;;;;;2.37;1.20;;;7.00;99.90;;;;;;10360329;28;20954;-71
2021/12/05 14:08:52;;;;;;;1.93;1.23;;;6.90;99.90;;;;;;10347885;28;20305;-72
2021/12/05 14:13:53;;;;;;;1.93;1.03;;;6.90;99.90;;;;;;10346038;28;20859;-73
2021/12/05 14:18:55;;;;;;;1.90;1.03;;;6.70;99.90;;;;;;10356839;28;20244;-71
2021/12/05 14:23:58;;;;;;;1.90;1.10;;;6.60;99.90;;;;;;10382591;28;20949;-72
2021/12/05 14:29:04;;;;;;;1.50;0.93;;;6.40;99.90;;;;;;10365005;28;20210;-71
2021/12/05 14:34:06;;;;;;;3.70;1.53;;;6.30;99.90;;;;;;10354559;28;20317;-70
2021/12/05 14:39:08;;;;;;;3.03;1.43;;;6.30;99.90;;;;;;10356509;28;20225;-70
2021/12/05 14:44:09;;;;;;;3.40;2.23;;;6.40;99.90;;;;;;10354609;28;20233;-70
2021/12/05 14:49:10;;;;;;;2.67;1.90;;;6.40;99.90;;;;;;10352651;28;20228;-71
2021/12/05 14:54:23;;;;;;;2.83;1.60;;;6.50;99.90;;;;;;10354373;28;20213;-70
2021/12/05 14:59:24;;;;;;;3.40;2.20;;;6.50;99.90;;;;;;10350018;28;20221;-71
2021/12/05 15:04:30;;;;;;;2.40;1.40;;;6.50;99.90;;;;;;10361166;28;20230;-70
2021/12/05 15:09:36;;;;;;;1.53;1.43;;;6.50;99.90;;;;;;10360891;28;20279;-70
2021/12/05 15:14:40;;;;;;;1.80;1.20;;;6.50;99.90;;;;;;10363196;28;20241;-70
2021/12/05 15:19:44;;;;;;;3.50;1.50;;;6.50;99.90;;;;;;10365496;28;20240;-71
2021/12/05 15:24:57;;;;;;;3.93;1.50;;;6.40;99.90;;;;;;10363396;28;20228;-69
2021/12/05 15:30:11;;;;;;;2.47;1.57;;;6.40;99.90;;;;;;10367857;28;20221;-70
2021/12/05 15:35:16;;;;;;;1.90;1.30;;;6.30;99.90;;;;;;10341681;28;20210;-70
2021/12/05 15:40:17;;;;;;;5.03;1.53;;;6.30;99.90;;;;;;10335678;28;20190;-69
2021/12/05 15:45:20;;;;;;;3.83;1.70;;;6.30;99.90;;;;;;10333800;28;20626;-70
2021/12/05 15:50:27;;;;;;;2.73;1.60;;;6.20;99.90;;;;;;10325752;28;20194;-70
2021/12/05 15:55:40;;;;;;;5.90;2.80;;;6.30;99.90;;;;;;10343584;28;20281;-69
2021/12/05 16:00:59;;;;;;;5.87;3.80;;;6.30;99.90;;;;;;10366896;28;20206;-70
2021/12/05 16:06:00;;;;;;;4.27;3.10;;;6.30;99.90;;;;;;10368962;28;20312;-69
2021/12/05 16:11:01;;;;;;;0.97;0.97;;;6.30;99.90;;;;;;10364136;28;20399;-70
2021/12/05 16:16:07;;;;;;;2.03;1.30;;;6.10;99.90;;;;;;10360597;28;20241;-72
2021/12/05 16:21:15;;;;;;;1.80;1.40;;;5.80;99.90;;;;;;10368981;28;20653;-73
2021/12/05 16:26:26;;;;;;;2.43;1.63;;;5.50;99.90;;;;;;10356164;28;20923;-73
2021/12/05 16:31:34;;;;;;;5.77;1.80;;;5.30;99.90;;;;;;10364661;28;20305;-71
2021/12/05 16:36:56;;;;;;;3.30;2.00;;;5.20;99.90;;;;;;10377114;28;20241;-71
2021/12/05 16:42:04;;;;;;;4.10;2.67;;;5.10;99.90;;;;;;10360799;28;20226;-74
2021/12/05 16:47:11;;;;;;;2.30;2.10;;;5.10;99.90;;;;;;10375155;28;20226;-73
2021/12/05 16:52:21;;;;;;;2.17;1.97;;;5.10;99.90;;;;;;10387867;28;20245;-73
2021/12/05 16:57:29;;;;;;;3.90;2.00;;;5.00;99.90;;;;;;10370198;28;20221;-74
2021/12/05 17:02:31;;;;;;;2.47;2.27;;;5.00;99.90;;;;;;10360734;28;20217;-75
2021/12/05 17:07:56;;;;;;;2.93;2.63;;;5.00;99.90;;;;;;10370637;28;20217;-75
2021/12/05 17:13:36;;;;;;;3.13;2.83;;;5.10;99.90;;;;;;10366911;28;20571;-75
2021/12/05 17:18:57;;;;;;;3.27;2.83;;;5.20;99.90;;;;;;10363875;28;20221;-74
2021/12/05 17:24:14;;;;;;;4.53;3.50;;;5.30;99.90;;;;;;10349394;28;20227;-75
2021/12/05 17:29:29;;;;;;;6.27;4.00;;;5.30;99.90;;;;;;10317325;28;20225;-75
2021/12/05 17:34:36;;;;;;;4.97;4.37;;;5.20;99.90;;;;;;10320824;28;20299;-73
2021/12/05 17:39:45;;;;;;;4.20;3.57;;;5.00;99.90;;;;;;10375608;28;20631;-75
2021/12/05 17:44:48;;;;;;;5.80;3.83;;;4.90;99.90;;;;;;10359346;28;20254;-73
2021/12/05 17:49:53;;;;;;;5.73;4.70;;;4.60;99.90;;;;;;10356245;28;20214;-73
2021/12/05 18:00:12;;;;;;;12.53;8.33;;;4.30;99.90;;;;;;10367462;28;20346;-74
2021/12/05 18:05:22;;;;;;;12.13;9.37;;;4.30;99.90;;;;;;10360632;28;20225;-74
2021/12/05 18:10:26;;;;;;;12.30;9.20;;;4.30;99.90;;;;;;10353424;28;20354;-73
2021/12/05 18:15:33;;;;;;;12.40;8.80;;;4.40;99.90;;;;;;10370431;28;20222;-74
2021/12/05 18:20:35;;;;;;;12.67;9.53;;;4.40;99.90;;;;;;10338725;28;20395;-73
2021/12/05 18:25:38;;;;;;;10.67;8.80;;;4.50;99.90;;;;;;10361009;28;20302;-74
2021/12/05 18:30:42;;;;;;;13.27;8.53;;;4.50;99.90;;;;;;10356795;28;20712;-74
2021/12/05 18:35:43;;;;;;;12.33;8.97;;;4.60;99.90;;;;;;10360511;28;20222;-74
2021/12/05 18:40:47;;;;;;;11.00;7.90;;;4.70;99.90;;;;;;10358416;28;20680;-74
2021/12/05 18:45:47;;;;;;;10.37;7.60;;;4.70;99.90;;;;;;10359932;28;20218;-75
2021/12/05 18:50:49;;;;;;;12.73;8.17;;;4.80;99.90;;;;;;10358084;28;20256;-74
2021/12/05 18:55:52;;;;;;;9.77;7.57;;;4.80;99.90;;;;;;10356771;28;20221;-75
2021/12/05 19:06:23;;;;;;;14.83;9.13;;;4.90;99.90;;;;;;10357120;28;20224;-74
2021/12/05 19:11:42;;;;;;;13.47;10.47;;;4.90;99.90;;;;;;10374249;28;20239;-74
2021/12/05 19:16:45;;;;;;;10.93;8.40;;;5.00;99.90;;;;;;10386322;28;20245;-73
2021/12/05 19:21:47;;;;;;;13.03;9.27;;;5.00;99.90;;;;;;10372240;28;20337;-72
2021/12/05 19:26:50;;;;;;;14.23;9.47;;;5.00;99.90;;;;;;10373175;28;20282;-73
2021/12/05 19:31:53;;;;;;;11.57;8.27;;;5.00;99.90;;;;;;10365231;28;20642;-73
2021/12/05 19:36:55;;;;;;;18.20;10.97;;;5.10;99.90;;;;;;10367383;28;20591;-73
2021/12/05 19:41:57;;;;;;;13.00;8.83;;;5.10;99.90;;;;;;10351572;28;21138;-73
2021/12/05 19:47:00;;;;;;;12.60;8.57;;;5.10;99.90;;;;;;10364349;28;20222;-73
2021/12/05 19:52:03;;;;;;;14.27;10.93;;;5.00;99.90;;;;;;10372654;28;20226;-73
2021/12/05 19:57:04;;;;;;;15.80;12.40;;;5.00;99.90;;;;;;10374996;28;20244;-73
2021/12/05 20:02:04;;;;;;;12.17;9.10;;;5.10;99.90;;;;;;10358762;28;20221;-73
2021/12/05 20:07:06;;;;;;;11.57;8.87;;;5.10;99.90;;;;;;10360893;28;20214;-74
2021/12/05 20:12:07;;;;;;;9.50;7.07;;;4.90;99.90;;;;;;10359670;28;20223;-75
2021/12/05 20:17:18;;;;;;;15.70;9.83;;;4.70;99.90;;;;;;10365653;28;20588;-74
2021/12/05 20:22:27;;;;;;;9.40;7.40;;;4.60;99.90;;;;;;10370915;28;20688;-74
2021/12/05 20:27:56;;;;;;;9.13;7.33;;;4.50;99.90;;;;;;10372473;28;20351;-74
2021/12/05 20:33:34;;;;;;;10.13;7.70;;;4.30;99.90;;;;;;10359935;28;20225;-74
2021/12/05 20:38:38;;;;;;;7.60;6.03;;;4.20;99.90;;;;;;10368266;28;20630;-73
2021/12/05 20:44:11;;;;;;;9.77;6.30;;;4.20;99.90;;;;;;10366759;28;20597;-75
2021/12/05 20:55:24;;;;;;;6.90;5.80;;;4.40;99.90;;;;;;10368735;28;20186;-74
2021/12/05 21:00:46;;;;;;;8.30;5.23;;;4.50;99.90;;;;;;10300488;28;20221;-74
2021/12/05 21:16:20;;;;;;;6.80;5.20;;;4.70;99.90;;;;;;10469031;28;21102;-73
2021/12/05 21:21:23;;;;;;;6.90;5.20;;;4.70;99.90;;;;;;10463904;28;20223;-72
2021/12/05 21:26:26;;;;;;;10.57;5.57;;;4.70;99.90;;;;;;10478853;28;20233;-72
2021/12/05 21:31:27;;;;;;;8.37;5.47;;;4.80;99.90;;;;;;10475400;28;20226;-72
2021/12/05 21:36:28;;;;;;;8.00;5.27;;;4.70;99.90;;;;;;10470544;28;20222;-72
2021/12/05 21:41:29;;;;;;;6.57;5.70;;;4.70;99.90;;;;;;10467417;28;20668;-73
2021/12/05 21:46:30;;;;;;;8.20;5.80;;;4.80;99.90;;;;;;10475060;28;20233;-73
2021/12/05 21:51:32;;;;;;;7.13;5.50;;;4.80;99.90;;;;;;10470481;28;20307;-73
2021/12/05 21:56:33;;;;;;;9.00;5.63;;;4.80;99.90;;;;;;10470976;28;20587;-73
2021/12/05 22:01:34;;;;;;;8.57;5.70;;;4.80;99.90;;;;;;10473136;28;20231;-73
2021/12/05 22:06:36;;;;;;;9.10;6.17;;;4.80;99.90;;;;;;10469478;28;20227;-71
2021/12/05 22:11:37;;;;;;;8.93;6.03;;;4.80;99.90;;;;;;10468655;28;20227;-74
2021/12/05 22:16:38;;;;;;;7.47;5.57;;;4.70;99.90;;;;;;10463585;28;20227;-72
2021/12/05 22:21:40;;;;;;;7.50;5.50;;;4.70;99.90;;;;;;10461079;28;20251;-72
2021/12/05 22:26:42;;;;;;;10.33;6.17;;;4.80;99.90;;;;;;10454147;28;20691;-72
2021/12/05 22:31:44;;;;;;;8.73;5.87;;;4.80;99.90;;;;;;10440685;28;20281;-73
2021/12/05 22:36:44;;;;;;;10.60;6.10;;;4.90;99.90;;;;;;10448634;28;20243;-74
2021/12/05 22:41:45;;;;;;;9.17;5.60;;;4.90;99.90;;;;;;10432161;28;20898;-73
2021/12/05 22:46:46;;;;;;;7.93;5.40;;;4.80;99.90;;;;;;10456664;28;20408;-74
2021/12/05 22:51:47;;;;;;;7.93;5.67;;;4.80;99.90;;;;;;10451283;28;20292;-72
2021/12/05 22:56:50;;;;;;;7.07;5.20;;;4.80;99.90;;;;;;10434591;28;20335;-73
2021/12/05 23:01:52;;;;;;;7.23;5.20;;;4.70;99.90;;;;;;10439693;28;20220;-71
2021/12/05 23:06:52;;;;;;;7.33;4.87;;;4.70;99.90;;;;;;10432001;28;20219;-71
2021/12/05 23:11:56;;;;;;;9.03;5.10;;;4.70;99.90;;;;;;10441020;28;20694;-71
2021/12/05 23:16:57;;;;;;;6.80;5.33;;;4.70;99.90;;;;;;10442172;28;20307;-73
2021/12/05 23:22:05;;;;;;;8.50;5.40;;;4.70;99.90;;;;;;10448257;28;20794;-73
2021/12/05 23:27:10;;;;;;;5.83;4.87;;;4.70;99.90;;;;;;10444788;28;20641;-72
2021/12/05 23:32:14;;;;;;;7.20;4.70;;;4.60;99.90;;;;;;10445310;28;20250;-72
2021/12/05 23:37:15;;;;;;;6.67;5.43;;;4.50;99.90;;;;;;10425320;28;20852;-73
2021/12/05 23:42:16;;;;;;;7.93;5.33;;;4.60;99.90;;;;;;10455936;28;20324;-73
2021/12/05 23:47:17;;;;;;;8.33;5.13;;;4.60;99.90;;;;;;10439828;28;20310;-74
2021/12/05 23:52:18;;;;;;;7.30;5.33;;;4.60;99.90;;;;;;10444250;28;20322;-73
2021/12/05 23:57:19;;;;;;;7.67;4.83;;;4.60;99.90;;;;;;10443082;28;20303;-72
